NCAR-RAP Real-Time Weather Data

Output produced by METARs form (19 June 2019  11:05 UTC)
found at http://weather.rap.ucar.edu/surface/
 
KMBS 191053Z 20003KT 9SM BKN100 17/17 A2982 RMK AO2 SLP094 T01720172
KMBS 190953Z 00000KT 9SM OVC095 17/17 A2981 RMK AO2 SLP092 T01670167
KMBS 190853Z AUTO 22003KT 10SM CLR 17/17 A2982 RMK AO2 SLP094 T01720167 56012
KMBS 190753Z AUTO 23004KT 10SM CLR 18/17 A2983 RMK AO2 SLP097 T01780167
KMBS 190653Z AUTO 20005KT 10SM CLR 19/17 A2984 RMK AO2 SLP101 T01890167
KMBS 190553Z AUTO 00000KT 10SM CLR 19/17 A2985 RMK AO2 SLP106 T01940167 10250 20189 58004
KMBS 190453Z AUTO 20003KT 10SM FEW100 20/17 A2986 RMK AO2 SLP109 T02000167 402610128
KMBS 190353Z AUTO 14004KT 10SM BKN060 21/17 A2987 RMK AO2 SLP111 T02060167
KMBS 190253Z AUTO 13003KT 10SM BKN110 21/17 A2987 RMK AO2 SLP110 T02110172 53000
KMBS 190153Z 18003KT 10SM CLR 23/16 A2986 RMK AO2 SLP109 T02330161
KMBS 190053Z 17003KT 10SM CLR 24/16 A2986 RMK AO2 SLP110 T02440161
KMBS 182353Z 18003KT 10SM CLR 25/15 A2986 RMK AO2 SLP110 T02500150 10261 20239 56010
KMBS 182253Z 24004KT 10SM CLR 26/14 A2986 RMK AO2 SLP111 T02560144
KMBS 182053Z 21004KT 10SM CLR 24/14 A2989 RMK AO2 SLP121 T02440144 58018
KMBS 181953Z 00000KT 10SM SCT048 25/15 A2991 RMK AO2 SLP128 T02500150
KMBS 181853Z 09005KT 10SM CLR 25/14 A2993 RMK AO2 SLP132 T02500139
KMBS 181753Z VRB03KT 10SM CLR 24/13 A2995 RMK AO2 SLP139 T02440133 10244 20167 58008
KMBS 181653Z VRB03KT 10SM CLR 23/14 A2996 RMK AO2 SLP144 T02330139
KMBS 181553Z 00000KT 10SM CLR 23/15 A2997 RMK AO2 SLP147 T02280150
KMBS 181453Z 06003KT 10SM CLR 22/16 A2997 RMK AO2 SLP148 T02170161 58003